createdAt,value
2017-01-05T00:00:29.634Z,70.78
2017-01-05T00:01:54.526Z,70.97
2017-01-05T00:03:09.786Z,71.34
2017-01-05T00:04:24.337Z,70.68
2017-01-05T00:05:38.600Z,70.68
2017-01-05T00:06:52.773Z,70.78
2017-01-05T00:08:07.939Z,71.06
2017-01-05T00:09:23.515Z,70.97
2017-01-05T00:10:40.183Z,70.97
2017-01-05T00:11:55.746Z,70.97
2017-01-05T00:13:09.955Z,70.49
2017-01-05T00:14:24.513Z,70.87
2017-01-05T00:15:38.947Z,71.06
2017-01-05T00:16:53.264Z,71.34
2017-01-05T00:18:07.510Z,71.34
2017-01-05T00:19:22.281Z,71.62
2017-01-05T00:20:37.230Z,71.44
2017-01-05T00:21:52.264Z,72
2017-01-05T00:23:06.359Z,72.77
2017-01-05T00:24:21.591Z,72.38
2017-01-05T00:25:35.696Z,73.05
2017-01-05T00:26:52.719Z,72.48
2017-01-05T00:28:07.230Z,72.67
2017-01-05T00:29:21.546Z,73.71
2017-01-05T00:30:36.574Z,73.52
2017-01-05T00:31:50.827Z,73.99
2017-01-05T00:33:05.011Z,73.8
2017-01-05T00:34:20.297Z,73.9
2017-01-05T00:35:34.398Z,74.28
2017-01-05T00:36:48.707Z,74.28
2017-01-05T00:38:03.878Z,73.8
2017-01-05T00:39:18.316Z,72.67
2017-01-05T00:40:33.272Z,73.14
2017-01-05T00:41:48.085Z,72.86
2017-01-05T00:43:03.118Z,74.56
2017-01-05T00:44:18.517Z,74.33
2017-01-05T00:45:33.627Z,74.52
2017-01-05T00:46:48.366Z,74.33
2017-01-05T00:48:03.699Z,73.68
2017-01-05T00:49:18.475Z,73.39
2017-01-05T00:50:33.041Z,73.39
2017-01-05T00:51:47.318Z,73.49
2017-01-05T00:53:01.717Z,74.05
2017-01-05T00:54:16.563Z,74.05
2017-01-05T00:55:30.684Z,73.86
2017-01-05T00:56:44.935Z,74.33
2017-01-05T00:57:59.645Z,75.09
2017-01-05T00:59:14.744Z,75.66
2017-01-05T01:00:29.867Z,76.23
2017-01-05T01:01:44.458Z,76.7
2017-01-05T01:02:59.643Z,77.08
2017-01-05T01:04:14.262Z,77.56
2017-01-05T01:05:29.257Z,78.27
2017-01-05T01:06:43.385Z,78.46
2017-01-05T01:07:58.208Z,79.41
2017-01-05T01:09:12.379Z,79.69
2017-01-05T01:10:27.099Z,80.64
2017-01-05T01:11:41.957Z,81.49
2017-01-05T01:12:56.855Z,81.59
2017-01-05T01:14:12.296Z,81.59
2017-01-05T01:15:27.449Z,82.06
2017-01-05T01:16:41.552Z,82.15
2017-01-05T01:17:56.091Z,82.25
2017-01-05T01:19:10.219Z,82.15
2017-01-05T01:20:25.042Z,81.96
2017-01-05T01:21:39.499Z,82.06
2017-01-05T01:22:53.857Z,82.15
2017-01-05T01:24:08.246Z,81.96
2017-01-05T01:25:23.873Z,82.25
2017-01-05T01:26:38.417Z,82.91
2017-01-05T01:27:53.154Z,82.82
2017-01-05T01:29:07.275Z,82.63
2017-01-05T01:30:23.085Z,82.06
2017-01-05T01:31:37.749Z,82.01
2017-01-05T01:32:52.052Z,81.96
2017-01-05T01:34:06.628Z,81.96
2017-01-05T01:35:20.969Z,81.82
2017-01-05T01:36:40.567Z,81.87
2017-01-05T01:37:54.961Z,81.44
2017-01-05T01:39:09.473Z,81.53
2017-01-05T01:40:24.309Z,81.15
2017-01-05T01:41:38.406Z,81.15
2017-01-05T01:42:52.972Z,80.49
2017-01-05T01:44:09.925Z,80.49
2017-01-05T01:45:25.309Z,80.77
2017-01-05T01:46:40.341Z,80.4
2017-01-05T01:47:55.881Z,80.02
2017-01-05T01:49:10.249Z,80.4
2017-01-05T01:50:26.497Z,80.11
2017-01-05T01:51:41.708Z,79.83
2017-01-05T01:52:56.427Z,80.02
2017-01-05T01:54:10.679Z,80.3
2017-01-05T01:55:25.741Z,80.02
2017-01-05T01:56:40.529Z,80.21
2017-01-05T01:57:55.807Z,80.11
2017-01-05T01:59:09.903Z,80.11
2017-01-05T02:00:24.284Z,80.21
2017-01-05T02:01:38.714Z,80.11
2017-01-05T02:02:53.503Z,79.83
2017-01-05T02:04:08.969Z,79.55
2017-01-05T02:05:23.161Z,79.74
2017-01-05T02:06:37.389Z,79.55
2017-01-05T02:07:51.788Z,79.83
2017-01-05T02:09:06.080Z,79.55
2017-01-05T02:10:22.029Z,79.26
2017-01-05T02:11:36.622Z,78.59
2017-01-05T02:12:51.185Z,77.37
2017-01-05T02:14:06.411Z,74.81
2017-01-05T02:15:21.873Z,74.52
2017-01-05T02:16:36.468Z,73.58
2017-01-05T02:17:50.804Z,73.49
2017-01-05T02:19:04.959Z,73.49
2017-01-05T02:20:19.492Z,73.39
2017-01-05T02:21:34.160Z,73.77
2017-01-05T02:22:48.554Z,73.39
2017-01-05T02:24:03.635Z,73.49
2017-01-05T02:25:18.863Z,73.68
2017-01-05T02:26:33.368Z,73.58
2017-01-05T02:27:47.605Z,73.49
2017-01-05T02:29:01.691Z,73.58
2017-01-05T02:30:16.212Z,74.15
2017-01-05T02:31:30.392Z,74.71
2017-01-05T02:32:44.984Z,75.19
2017-01-05T02:33:59.087Z,75.38
2017-01-05T02:35:13.864Z,75.95
2017-01-05T02:36:28.818Z,75.85
2017-01-05T02:37:44.483Z,76.51
2017-01-05T02:38:59.286Z,77.08
2017-01-05T02:40:13.568Z,77.46
2017-01-05T02:41:28.191Z,77.46
2017-01-05T02:42:42.876Z,77.46
2017-01-05T02:43:57.435Z,77.46
2017-01-05T02:45:12.044Z,77.56
2017-01-05T02:46:28.342Z,77.27
2017-01-05T02:47:43.062Z,77.27
2017-01-05T02:48:57.219Z,77.56
2017-01-05T02:50:11.463Z,77.56
2017-01-05T02:51:26.830Z,77.37
2017-01-05T02:52:41.098Z,78.03
2017-01-05T02:53:55.658Z,77.84
2017-01-05T02:55:10.857Z,78.5
2017-01-05T02:56:25.449Z,78.41
2017-01-05T02:57:40.100Z,78.79
2017-01-05T02:58:54.354Z,78.5
2017-01-05T03:00:08.453Z,78.5
2017-01-05T03:01:25.499Z,78.79
2017-01-05T03:02:39.695Z,79.17
2017-01-05T03:03:54.347Z,79.26
2017-01-05T03:05:08.438Z,78.98
2017-01-05T03:06:22.758Z,78.88
2017-01-05T03:07:37.540Z,79.26
2017-01-05T03:08:52.342Z,79.17
2017-01-05T03:10:06.743Z,79.36
2017-01-05T03:11:21.119Z,79.17
2017-01-05T03:12:36.437Z,79.36
2017-01-05T03:13:50.680Z,78.69
2017-01-05T03:15:04.782Z,76.61
2017-01-05T03:16:19.783Z,76.7
2017-01-05T03:17:33.969Z,76.8
2017-01-05T03:18:48.668Z,76.23
2017-01-05T03:20:03.227Z,75.76
2017-01-05T03:21:18.113Z,76.42
2017-01-05T03:22:32.629Z,75.95
2017-01-05T03:23:46.757Z,76.04
2017-01-05T03:25:01.928Z,75.38
2017-01-05T03:26:16.038Z,75
2017-01-05T03:27:30.356Z,74.24
2017-01-05T03:28:45.706Z,73.77
2017-01-05T03:29:59.811Z,74.05
2017-01-05T03:31:14.607Z,74.43
2017-01-05T03:32:28.846Z,74.05
2017-01-05T03:33:43.909Z,73.86
2017-01-05T03:34:58.323Z,73.49
2017-01-05T03:36:12.608Z,73.86
2017-01-05T03:37:26.688Z,73.58
2017-01-05T03:38:41.072Z,73.49
2017-01-05T03:39:55.286Z,73.68
2017-01-05T03:41:10.387Z,73.68
2017-01-05T03:42:24.503Z,73.77
2017-01-05T03:43:39.371Z,73.11
2017-01-05T03:44:53.903Z,72.63
2017-01-05T03:46:08.382Z,72.63
2017-01-05T03:47:22.775Z,73.11
2017-01-05T03:48:37.516Z,73.11
2017-01-05T03:49:52.087Z,73.01
2017-01-05T03:51:06.830Z,72.82
2017-01-05T03:52:21.027Z,73.39
2017-01-05T03:53:35.667Z,73.77
2017-01-05T03:54:49.731Z,73.49
2017-01-05T03:56:03.986Z,73.68
2017-01-05T03:57:18.972Z,74.52
2017-01-05T03:58:33.816Z,74.9
2017-01-05T03:59:48.248Z,75.95
2017-01-05T04:01:02.984Z,76.8
2017-01-05T04:02:17.174Z,76.89
2017-01-05T04:03:31.923Z,77.14
2017-01-05T04:04:46.633Z,77.42
2017-01-05T04:06:02.739Z,77.33
2017-01-05T04:07:23.491Z,78.37
2017-01-05T04:08:43.046Z,78.65
2017-01-05T04:10:02.927Z,79.13
2017-01-05T04:11:18.240Z,79.32
2017-01-05T04:12:38.103Z,79.6
2017-01-05T04:13:52.705Z,79.98
2017-01-05T04:15:06.973Z,80.17
2017-01-05T04:16:21.579Z,80.26
2017-01-05T04:17:36.600Z,80.45
2017-01-05T04:18:53.227Z,80.26
2017-01-05T04:20:08.374Z,80.83
2017-01-05T04:21:23.144Z,80.45
2017-01-05T04:22:37.739Z,80.45
2017-01-05T04:23:53.589Z,80.26
2017-01-05T04:25:07.977Z,79.98
2017-01-05T04:26:22.328Z,79.98
2017-01-05T04:27:36.988Z,80.45
2017-01-05T04:28:51.302Z,80.83
2017-01-05T04:30:05.681Z,80.93
2017-01-05T04:31:20.396Z,81.02
2017-01-05T04:32:34.678Z,81.12
2017-01-05T04:33:49.083Z,81.02
2017-01-05T04:35:03.295Z,81.21
2017-01-05T04:36:18.293Z,80.64
2017-01-05T04:37:32.851Z,81.12
2017-01-05T04:38:47.091Z,81.49
2017-01-05T04:40:02.445Z,81.77
2017-01-05T04:41:17.305Z,81.68
2017-01-05T04:42:31.708Z,81.68
2017-01-05T04:43:45.959Z,81.96
2017-01-05T04:45:00.535Z,82.25
2017-01-05T04:46:15.251Z,82.44
2017-01-05T04:47:29.983Z,82.63
2017-01-05T04:48:44.822Z,82.82
2017-01-05T04:50:00.578Z,82.53
2017-01-05T04:51:15.101Z,83.1
2017-01-05T04:52:29.625Z,83.2
2017-01-05T04:53:44.166Z,83.86
2017-01-05T04:54:58.730Z,83.95
2017-01-05T04:56:13.277Z,84.52
2017-01-05T04:57:27.505Z,84.42
2017-01-05T04:58:42.667Z,84.61
2017-01-05T04:59:56.953Z,85.38
2017-01-05T05:01:11.331Z,84.81
2017-01-05T05:02:25.610Z,85.28
2017-01-05T05:03:41.189Z,84.81
2017-01-05T05:04:56.208Z,84.71
2017-01-05T05:06:10.754Z,84.33
2017-01-05T05:07:25.278Z,84.33
2017-01-05T05:08:39.357Z,83.95
2017-01-05T05:09:53.666Z,83.48
2017-01-05T05:11:08.323Z,83.01
2017-01-05T05:12:23.080Z,83.01
2017-01-05T05:13:37.460Z,82.34
2017-01-05T05:14:52.302Z,82.53
2017-01-05T05:16:06.961Z,82.06
2017-01-05T05:17:22.301Z,82.53
2017-01-05T05:18:36.446Z,82.53
2017-01-05T05:19:51.014Z,81.96
2017-01-05T05:21:05.168Z,82.25
2017-01-05T05:22:20.341Z,82.06
2017-01-05T05:23:34.980Z,82.06
2017-01-05T05:24:49.757Z,81.77
2017-01-05T05:26:04.220Z,81.68
2017-01-05T05:27:18.511Z,81.87
2017-01-05T05:28:32.603Z,81.49
2017-01-05T05:29:47.501Z,86.41
2017-01-05T05:31:04.245Z,83.14
2017-01-05T05:32:19.358Z,81.01
2017-01-05T05:33:34.088Z,78.64
2017-01-05T05:34:48.230Z,78.22
2017-01-05T05:36:04.927Z,78.79
2017-01-05T05:37:19.037Z,79.26
2017-01-05T05:38:33.609Z,79.64
2017-01-05T05:39:48.268Z,79.6
2017-01-05T05:41:02.903Z,79.6
2017-01-05T05:42:17.005Z,79.79
2017-01-05T05:43:31.289Z,79.69
2017-01-05T05:44:45.729Z,80.26
2017-01-05T05:46:00.589Z,79.79
2017-01-05T05:47:14.768Z,79.79
2017-01-05T05:48:29.607Z,79.6
2017-01-05T05:49:43.731Z,79.41
2017-01-05T05:50:59.337Z,79.41
2017-01-05T05:52:14.471Z,79.32
2017-01-05T05:53:28.796Z,79.5
2017-01-05T05:54:43.329Z,78.94
2017-01-05T05:55:57.667Z,78.94
2017-01-05T05:57:12.178Z,79.03
2017-01-05T05:58:27.074Z,78.75
2017-01-05T05:59:41.396Z,78.56
2017-01-05T06:00:56.184Z,78.65
2017-01-05T06:02:10.330Z,78.56
2017-01-05T06:03:25.385Z,78.18
2017-01-05T06:04:39.463Z,77.99
2017-01-05T06:05:54.161Z,78.75
2017-01-05T06:07:08.796Z,78.85
2017-01-05T06:08:23.068Z,78.65
2017-01-05T06:09:37.990Z,79.03
2017-01-05T06:10:53.039Z,78.46
2017-01-05T06:12:07.857Z,78.46
2017-01-05T06:13:21.964Z,78.46
2017-01-05T06:14:36.684Z,78.56
2017-01-05T06:15:51.540Z,77.99
2017-01-05T06:17:05.920Z,78.46
2017-01-05T06:18:20.006Z,78.08
2017-01-05T06:19:34.797Z,78.46
2017-01-05T06:20:48.886Z,76.86
2017-01-05T06:22:04.070Z,76.95
2017-01-05T06:23:18.152Z,76.95
2017-01-05T06:24:32.607Z,76.86
2017-01-05T06:25:46.697Z,75.62
2017-01-05T06:27:02.769Z,74.58
2017-01-05T06:28:17.364Z,73.16
2017-01-05T06:29:32.370Z,72.31
2017-01-05T06:30:46.692Z,72.69
2017-01-05T06:32:00.867Z,72.12
2017-01-05T06:33:15.190Z,71.08
2017-01-05T06:34:29.608Z,70.14
2017-01-05T06:35:44.298Z,69.28
2017-01-05T06:36:58.386Z,68.33
2017-01-05T06:38:13.652Z,69.09
2017-01-05T06:39:28.424Z,68.52
2017-01-05T06:40:42.825Z,67.86
2017-01-05T06:41:58.003Z,67.77
2017-01-05T06:43:12.902Z,67.68
2017-01-05T06:44:28.738Z,67.39
2017-01-05T06:45:42.848Z,67.3
2017-01-05T06:46:57.382Z,67.2
2017-01-05T06:48:11.587Z,67.58
2017-01-05T06:49:26.346Z,67.39
2017-01-05T06:50:40.470Z,67.49
2017-01-05T06:51:54.779Z,67.49
2017-01-05T06:53:12.015Z,67.11
2017-01-05T06:54:26.571Z,66.73
2017-01-05T06:55:40.929Z,66.73
2017-01-05T06:56:55.039Z,66.53
2017-01-05T06:58:09.428Z,66.53
2017-01-05T06:59:24.719Z,67.01
2017-01-05T07:00:39.022Z,67.11
2017-01-05T07:01:53.541Z,67.3
2017-01-05T07:03:07.921Z,67.68
2017-01-05T07:04:22.479Z,67.2
2017-01-05T07:05:37.060Z,67.2
2017-01-05T07:06:51.642Z,67.11
2017-01-05T07:08:06.948Z,67.3
2017-01-05T07:09:21.057Z,67.2
2017-01-05T07:10:36.712Z,67.2
2017-01-05T07:11:51.126Z,67.3
2017-01-05T07:13:06.921Z,67.3
2017-01-05T07:14:21.786Z,67.11
2017-01-05T07:15:35.889Z,67.68
2017-01-05T07:16:51.054Z,67.86
2017-01-05T07:18:05.920Z,66.63
2017-01-05T07:19:20.167Z,66.25
2017-01-05T07:20:34.881Z,66.92
2017-01-05T07:21:49.171Z,67.2
2017-01-05T07:23:03.738Z,67.58
2017-01-05T07:24:18.392Z,67.86
2017-01-05T07:25:33.410Z,68.15
2017-01-05T07:26:48.048Z,68.05
2017-01-05T07:28:02.637Z,68.24
2017-01-05T07:29:16.996Z,68.43
2017-01-05T07:30:31.372Z,68.52
2017-01-05T07:31:45.662Z,68.71
2017-01-05T07:33:00.060Z,68.43
2017-01-05T07:34:15.422Z,68.71
2017-01-05T07:35:30.451Z,68.05
2017-01-05T07:36:45.509Z,68.05
2017-01-05T07:37:59.661Z,68.05
2017-01-05T07:39:14.588Z,67.49
2017-01-05T07:40:29.131Z,67.2
2017-01-05T07:42:09.338Z,67.2
2017-01-05T07:43:24.838Z,67.2
2017-01-05T07:44:39.662Z,66.92
2017-01-05T07:45:53.776Z,67.39
2017-01-05T07:47:13.726Z,66.63
2017-01-05T07:48:28.238Z,66.73
2017-01-05T07:49:42.509Z,66.35
2017-01-05T07:50:58.133Z,66.82
2017-01-05T07:52:12.713Z,66.06
2017-01-05T07:53:27.066Z,65.69
2017-01-05T07:54:41.478Z,65.69
2017-01-05T07:55:56.211Z,65.78
2017-01-05T07:57:10.344Z,65.88
2017-01-05T07:58:24.694Z,65.97
2017-01-05T07:59:39.215Z,65.31
2017-01-05T08:00:53.739Z,64.93
2017-01-05T08:02:08.378Z,64.45
2017-01-05T08:03:24.131Z,65.02
2017-01-05T08:04:38.272Z,64.64
2017-01-05T08:05:52.993Z,63.98
2017-01-05T08:07:07.880Z,63.89
2017-01-05T08:08:22.175Z,63.32
2017-01-05T08:09:36.535Z,63.6
2017-01-05T08:10:54.450Z,63.32
2017-01-05T08:12:09.571Z,62.75
2017-01-05T08:13:24.409Z,63.04
2017-01-05T08:14:38.709Z,62.37
2017-01-05T08:15:52.981Z,62.56
2017-01-05T08:17:07.715Z,62.37
2017-01-05T08:18:21.824Z,62.66
2017-01-05T08:19:36.264Z,62.85
2017-01-05T08:20:50.376Z,62.66
2017-01-05T08:22:05.545Z,62.18
2017-01-05T08:23:20.147Z,62.18
2017-01-05T08:24:34.517Z,63.13
2017-01-05T08:25:49.414Z,61.9
2017-01-05T08:27:04.710Z,62.28
2017-01-05T08:28:18.975Z,62.47
2017-01-05T08:29:33.345Z,62.66
2017-01-05T08:30:47.466Z,62.75
2017-01-05T08:32:02.675Z,62.47
2017-01-05T08:33:17.231Z,62.09
2017-01-05T08:34:32.321Z,62.18
2017-01-05T08:35:46.907Z,62.28
2017-01-05T08:37:01.232Z,61.9
2017-01-05T08:38:15.796Z,62.28
2017-01-05T08:39:30.588Z,61.99
2017-01-05T08:40:45.285Z,62.37
2017-01-05T08:42:00.058Z,62.37
2017-01-05T08:43:14.172Z,62.18
2017-01-05T08:44:29.804Z,62.18
2017-01-05T08:45:43.937Z,62.18
2017-01-05T08:46:58.505Z,62.37
2017-01-05T08:48:13.703Z,61.99
2017-01-05T08:49:28.899Z,62.28
2017-01-05T08:50:44.715Z,62.09
2017-01-05T08:51:58.819Z,62.28
2017-01-05T08:53:40.418Z,62.37
2017-01-05T08:54:54.652Z,61.99
2017-01-05T08:56:09.191Z,62.28
2017-01-05T08:57:25.056Z,61.9
2017-01-05T08:58:39.162Z,61.61
2017-01-05T08:59:53.900Z,61.52
2017-01-05T09:01:34.608Z,61.61
2017-01-05T09:02:48.875Z,62.18
2017-01-05T09:04:03.432Z,61.99
2017-01-05T09:05:18.232Z,61.15
2017-01-05T09:06:32.799Z,61.33
2017-01-05T09:07:47.065Z,61.15
2017-01-05T09:09:01.386Z,60.96
2017-01-05T09:10:15.774Z,59.91
2017-01-05T09:11:30.359Z,59.91
2017-01-05T09:12:45.739Z,60.58
2017-01-05T09:13:59.876Z,60.58
2017-01-05T09:15:15.455Z,60.67
2017-01-05T09:16:29.747Z,60.96
2017-01-05T09:17:44.051Z,60.67
2017-01-05T09:18:59.310Z,60.67
2017-01-05T09:20:14.061Z,60
2017-01-05T09:21:28.787Z,60.48
2017-01-05T09:23:10.702Z,61.33
2017-01-05T09:24:25.547Z,61.33
2017-01-05T09:25:42.044Z,60.58
2017-01-05T09:26:56.309Z,60.1
2017-01-05T09:28:10.387Z,60.19
2017-01-05T09:29:27.252Z,58.43
2017-01-05T09:30:41.971Z,57.23
2017-01-05T09:31:57.352Z,57.51
2017-01-05T09:33:11.926Z,58.71
2017-01-05T09:34:26.225Z,58.71
2017-01-05T09:35:41.933Z,59.28
2017-01-05T09:36:56.867Z,59.84
2017-01-05T09:38:11.231Z,59.56
2017-01-05T09:39:26.199Z,59.19
2017-01-05T09:40:53.593Z,59.44
2017-01-05T09:42:08.744Z,59.91
2017-01-05T09:43:24.435Z,59.72
2017-01-05T09:44:38.626Z,60
2017-01-05T09:45:54.254Z,59.91
2017-01-05T09:47:09.466Z,59.91
2017-01-05T09:48:23.563Z,60.1
2017-01-05T09:49:38.478Z,60.1
2017-01-05T09:50:53.180Z,59.91
2017-01-05T09:52:07.546Z,60.38
2017-01-05T09:53:21.657Z,60.38
2017-01-05T09:54:36.262Z,60.67
2017-01-05T09:55:51.010Z,60.51
2017-01-05T09:57:05.862Z,59.94
2017-01-05T09:58:19.975Z,60.22
2017-01-05T09:59:34.688Z,59.84
2017-01-05T10:00:49.178Z,59.56
2017-01-05T10:02:03.525Z,59.47
2017-01-05T10:03:17.650Z,58.71
2017-01-05T10:04:31.948Z,58.4
2017-01-05T10:05:46.022Z,59.16
2017-01-05T10:07:01.058Z,59.38
2017-01-05T10:08:15.311Z,59.66
2017-01-05T10:09:30.015Z,59.19
2017-01-05T10:10:44.133Z,59.19
2017-01-05T10:11:58.996Z,58.52
2017-01-05T10:13:13.107Z,58.81
2017-01-05T10:14:41.519Z,59.06
2017-01-05T10:15:56.639Z,59.16
2017-01-05T10:17:10.771Z,58.14
2017-01-05T10:18:25.043Z,57.57
2017-01-05T10:19:39.738Z,57.1
2017-01-05T10:20:54.559Z,57.2
2017-01-05T10:22:09.815Z,57.26
2017-01-05T10:23:24.112Z,57.07
2017-01-05T10:24:38.707Z,57.35
2017-01-05T10:25:54.614Z,56.88
2017-01-05T10:27:10.080Z,56.88
2017-01-05T10:28:24.661Z,57.73
2017-01-05T10:29:39.255Z,57.26
2017-01-05T10:30:54.014Z,57.26
2017-01-05T10:32:08.456Z,57.26
2017-01-05T10:33:40.118Z,57.17
2017-01-05T10:34:54.835Z,57.39
2017-01-05T10:36:09.052Z,57.2
2017-01-05T10:37:23.839Z,57.39
2017-01-05T10:38:38.277Z,57.83
2017-01-05T10:39:52.879Z,57.92
2017-01-05T10:41:07.101Z,57.95
2017-01-05T10:42:22.314Z,57.95
2017-01-05T10:43:36.432Z,57.86
2017-01-05T10:44:50.691Z,57.86
2017-01-05T10:46:06.337Z,57.86
2017-01-05T10:47:22.870Z,57.39
2017-01-05T10:48:37.495Z,58.11
2017-01-05T10:49:52.470Z,57.83
2017-01-05T10:51:07.758Z,57.83
2017-01-05T10:52:22.892Z,57.17
2017-01-05T10:53:37.520Z,56.79
2017-01-05T10:54:52.669Z,57.17
2017-01-05T10:56:07.319Z,57.92
2017-01-05T10:57:21.874Z,57.45
2017-01-05T10:58:36.851Z,58.02
2017-01-05T10:59:51.449Z,58.49
2017-01-05T11:01:06.282Z,58.87
2017-01-05T11:02:21.780Z,59.16
2017-01-05T11:03:36.528Z,58.97
2017-01-05T11:04:51.109Z,58.3
2017-01-05T11:06:06.145Z,57.54
2017-01-05T11:07:21.680Z,58.3
2017-01-05T11:08:35.803Z,58.59
2017-01-05T11:09:50.153Z,58.78
2017-01-05T11:11:05.059Z,58.21
2017-01-05T11:12:20.139Z,58.78
2017-01-05T11:13:34.401Z,58.68
2017-01-05T11:14:49.680Z,58.59
2017-01-05T11:16:04.002Z,58.68
2017-01-05T11:17:18.645Z,58.78
2017-01-05T11:18:33.778Z,58.87
2017-01-05T11:19:48.517Z,59.25
2017-01-05T11:21:03.450Z,59.91
2017-01-05T11:22:18.483Z,59.53
2017-01-05T11:23:32.923Z,59.63
2017-01-05T11:25:04.501Z,59.53
2017-01-05T11:26:19.765Z,59.34
2017-01-05T11:27:36.840Z,59.44
2017-01-05T11:28:51.122Z,59.16
2017-01-05T11:30:05.428Z,59.53
2017-01-05T11:31:20.468Z,59.44
2017-01-05T11:32:34.661Z,60
2017-01-05T11:33:49.411Z,59.34
2017-01-05T11:35:03.509Z,59.81
2017-01-05T11:36:17.907Z,59.63
2017-01-05T11:37:32.607Z,59.44
2017-01-05T11:38:47.418Z,59.44
2017-01-05T11:40:01.544Z,59.34
2017-01-05T11:41:16.283Z,58.68
2017-01-05T11:42:30.483Z,58.4
2017-01-05T11:43:45.359Z,58.3
2017-01-05T11:45:00.481Z,57.92
2017-01-05T11:46:15.308Z,57.92
2017-01-05T11:47:30.477Z,57.35
2017-01-05T11:48:46.704Z,57.26
2017-01-05T11:50:01.128Z,57.17
2017-01-05T11:51:15.399Z,57.17
2017-01-05T11:52:30.587Z,56.88
2017-01-05T11:53:44.950Z,56.41
2017-01-05T11:55:00.595Z,56.79
2017-01-05T11:56:14.982Z,56.79
2017-01-05T11:57:30.243Z,56.79
2017-01-05T11:58:44.453Z,56.88
2017-01-05T11:59:59.345Z,56.88
2017-01-05T12:01:13.547Z,56.32
2017-01-05T12:02:28.606Z,56.41
2017-01-05T12:03:43.778Z,56.13
2017-01-05T12:05:00.371Z,55.46
2017-01-05T12:06:14.959Z,55.08
2017-01-05T12:07:29.782Z,54.14
2017-01-05T12:08:44.292Z,53.19
2017-01-05T12:09:59.029Z,52.81
2017-01-05T12:11:13.141Z,53.09
2017-01-05T12:12:27.447Z,52.91
2017-01-05T12:13:43.000Z,53.38
2017-01-05T12:14:58.056Z,53.38
2017-01-05T12:16:13.270Z,53.95
2017-01-05T12:17:27.510Z,53.76
2017-01-05T12:18:42.187Z,53.38
2017-01-05T12:19:56.911Z,53.85
2017-01-05T12:21:11.803Z,52.72
2017-01-05T12:22:26.567Z,53
2017-01-05T12:23:42.163Z,53.38
2017-01-05T12:24:57.058Z,53.28
2017-01-05T12:26:11.666Z,53.85
2017-01-05T12:27:26.426Z,53.95
2017-01-05T12:28:41.654Z,54.04
2017-01-05T12:29:56.465Z,54.23
2017-01-05T12:31:11.194Z,55.08
2017-01-05T12:32:25.461Z,54.8
2017-01-05T12:33:40.450Z,54.8
2017-01-05T12:34:56.258Z,54.42
2017-01-05T12:36:10.381Z,55.37
2017-01-05T12:37:25.695Z,54.8
2017-01-05T12:38:40.374Z,54.61
2017-01-05T12:39:56.425Z,54.23
2017-01-05T12:41:10.642Z,54.23
2017-01-05T12:42:25.441Z,54.71
2017-01-05T12:43:39.701Z,54.71
2017-01-05T12:44:54.070Z,54.99
2017-01-05T12:46:09.946Z,55.18
2017-01-05T12:47:24.595Z,55.08
2017-01-05T12:48:39.092Z,54.14
2017-01-05T12:49:53.724Z,53.85
2017-01-05T12:51:08.480Z,53.95
2017-01-05T12:52:22.857Z,54.23
2017-01-05T12:53:38.253Z,53.95
2017-01-05T12:54:52.570Z,53.19
2017-01-05T12:56:07.131Z,53.09
2017-01-05T12:57:21.885Z,53
2017-01-05T12:58:36.370Z,52.72
2017-01-05T12:59:52.870Z,52.25
2017-01-05T13:01:07.161Z,52.81
2017-01-05T13:02:22.329Z,51.99
2017-01-05T13:03:37.067Z,51.8
2017-01-05T13:04:52.060Z,51.14
2017-01-05T13:06:07.442Z,51.04
2017-01-05T13:07:22.730Z,51.14
2017-01-05T13:08:37.218Z,51.61
2017-01-05T13:09:53.596Z,51.7
2017-01-05T13:11:08.973Z,51.51
2017-01-05T13:12:23.091Z,51.99
2017-01-05T13:13:37.396Z,52.27
2017-01-05T13:14:51.599Z,52.53
2017-01-05T13:16:07.101Z,52.75
2017-01-05T13:17:21.554Z,51.58
2017-01-05T13:18:36.357Z,52.25
2017-01-05T13:19:54.055Z,51.96
2017-01-05T13:21:10.443Z,50.92
2017-01-05T13:22:27.715Z,50.54
2017-01-05T13:23:42.666Z,50.54
2017-01-05T13:24:56.947Z,50.73
2017-01-05T13:26:11.768Z,50.73
2017-01-05T13:27:26.492Z,51.01
2017-01-05T13:28:41.066Z,50.54
2017-01-05T13:29:55.650Z,49.12
2017-01-05T13:31:10.439Z,49.12
2017-01-05T13:33:16.163Z,49.69
2017-01-05T13:34:30.943Z,49.69
2017-01-05T13:35:46.621Z,49.98
2017-01-05T13:37:00.918Z,50.35
2017-01-05T13:38:15.157Z,49.98
2017-01-05T13:39:29.453Z,49.22
2017-01-05T13:40:43.641Z,49.31
2017-01-05T13:41:58.813Z,49.79
2017-01-05T13:43:15.409Z,49.69
2017-01-05T13:44:29.685Z,49.5
2017-01-05T13:45:44.345Z,48.55
2017-01-05T13:46:59.609Z,48.84
2017-01-05T13:48:15.102Z,48.49
2017-01-05T13:49:30.618Z,48.58
2017-01-05T13:50:45.629Z,48.29
2017-01-05T13:52:00.189Z,48.39
2017-01-05T13:53:15.119Z,48.96
2017-01-05T13:54:29.581Z,49.15
2017-01-05T13:55:43.875Z,48.29
2017-01-05T13:56:57.967Z,48.86
2017-01-05T13:58:13.087Z,49.05
2017-01-05T13:59:27.661Z,49.33
2017-01-05T14:00:42.474Z,49.24
2017-01-05T14:01:56.644Z,49.62
2017-01-05T14:03:10.940Z,49.71
2017-01-05T14:04:25.088Z,49.71
2017-01-05T14:05:39.805Z,46.59
2017-01-05T14:06:54.255Z,45.55
2017-01-05T14:08:08.974Z,46.09
2017-01-05T14:09:23.550Z,46.28
2017-01-05T14:10:37.855Z,46.4
2017-01-05T14:11:52.033Z,46.12
2017-01-05T14:13:07.043Z,45.93
2017-01-05T14:14:21.601Z,46.09
2017-01-05T14:15:35.852Z,46.66
2017-01-05T14:16:49.995Z,46.85
2017-01-05T14:18:04.305Z,47.04
2017-01-05T14:19:18.725Z,47.13
2017-01-05T14:20:33.926Z,47.23
2017-01-05T14:21:48.157Z,47.32
2017-01-05T14:23:02.507Z,47.51
2017-01-05T14:24:36.094Z,48.18
2017-01-05T14:25:50.624Z,48.18
2017-01-05T14:27:20.861Z,49.03
2017-01-05T14:28:35.576Z,48.93
2017-01-05T14:29:51.140Z,49.22
2017-01-05T14:31:06.313Z,49.31
2017-01-05T14:32:21.132Z,49.5
2017-01-05T14:33:35.458Z,49.98
2017-01-05T14:34:49.589Z,49.88
2017-01-05T14:36:04.444Z,50.45
2017-01-05T14:37:19.454Z,50.73
2017-01-05T14:38:33.780Z,50.82
2017-01-05T14:39:48.101Z,50.63
2017-01-05T14:41:04.732Z,50.35
2017-01-05T14:42:18.848Z,50.07
2017-01-05T14:43:44.021Z,49.98
2017-01-05T14:44:59.511Z,50.45
2017-01-05T14:46:13.672Z,50.35
2017-01-05T14:47:30.010Z,50.07
2017-01-05T14:48:44.356Z,50.26
2017-01-05T14:49:59.080Z,50.35
2017-01-05T14:51:14.613Z,50.54
2017-01-05T14:52:29.270Z,50.35
2017-01-05T14:53:43.816Z,50.16
2017-01-05T14:54:58.124Z,49.98
2017-01-05T14:56:12.672Z,49.69
2017-01-05T14:57:26.907Z,49.79
2017-01-05T14:58:42.357Z,49.79
2017-01-05T14:59:56.572Z,48.93
2017-01-05T15:01:10.701Z,48.93
2017-01-05T15:02:25.846Z,48.93
2017-01-05T15:03:40.201Z,49.12
2017-01-05T15:04:54.942Z,49.5
2017-01-05T15:06:09.996Z,49.98
2017-01-05T15:07:30.312Z,50.63
2017-01-05T15:08:44.762Z,51.11
2017-01-05T15:09:59.120Z,51.39
2017-01-05T15:11:13.435Z,51.49
2017-01-05T15:12:27.596Z,50.73
2017-01-05T15:13:43.826Z,50.9
2017-01-05T15:14:58.267Z,51.09
2017-01-05T15:16:12.638Z,50.73
2017-01-05T15:17:27.205Z,50.33
2017-01-05T15:18:42.571Z,50.42
2017-01-05T15:19:57.149Z,50.71
2017-01-05T15:21:11.934Z,50.99
2017-01-05T15:22:26.088Z,50.9
2017-01-05T15:23:42.610Z,51.09
2017-01-05T15:24:56.756Z,51.18
2017-01-05T15:26:11.046Z,50.9
2017-01-05T15:27:25.487Z,50.99
2017-01-05T15:28:39.854Z,51.46
2017-01-05T15:29:54.088Z,51.84
2017-01-05T15:31:08.798Z,51.65
2017-01-05T15:32:22.906Z,52.31
2017-01-05T15:33:37.999Z,52.41
2017-01-05T15:34:52.588Z,51.93
2017-01-05T15:36:07.864Z,52.22
2017-01-05T15:37:22.612Z,52.6
2017-01-05T15:38:36.887Z,52.5
2017-01-05T15:39:51.654Z,52.5
2017-01-05T15:41:07.136Z,53.26
2017-01-05T15:42:21.866Z,53.07
2017-01-05T15:43:42.580Z,53.64
2017-01-05T15:45:02.510Z,53.83
2017-01-05T15:46:18.182Z,54.11
2017-01-05T15:47:32.297Z,54.02
2017-01-05T15:48:46.842Z,54.21
2017-01-05T15:50:01.536Z,54.11
2017-01-05T15:51:15.835Z,54.77
2017-01-05T15:52:30.917Z,55.25
2017-01-05T15:53:47.000Z,56.01
2017-01-05T15:55:01.796Z,55.72
2017-01-05T15:56:28.707Z,55.82
2017-01-05T15:57:46.368Z,56.48
2017-01-05T15:59:05.098Z,56.48
2017-01-05T16:00:19.384Z,56.26
2017-01-05T16:01:33.661Z,56.16
2017-01-05T16:02:49.285Z,56.16
2017-01-05T16:04:03.521Z,56.26
2017-01-05T16:05:18.190Z,57.01
2017-01-05T16:06:33.441Z,56.16
2017-01-05T16:07:48.112Z,55.31
2017-01-05T16:09:03.509Z,55.22
2017-01-05T16:10:17.823Z,55.69
2017-01-05T16:11:33.157Z,54.93